• Join FlightAware (Why Join?)
  • Login
  • US Flag 
10:37PM EDT


 

Airport Tracker/Info


-or-


 

Live Flight TrackerFlight Track Log ✈ GPD20 ✈ 14-Oct-2013 ✈ KMVY - KHPN

Flight Track Log - Related Links

Times and Time Zones

All times are in EDT time to prevent confusion due to time zone crossing. See the GPD20 flight status page for this flight to view local times or setup timezone preferences in your user account.

Time Position Orientation Groundspeed Altitude Reporting Facility
EDT Latitude Longitude Course Direction KTS MPH feet Rate Location/Type
07:30PM 41.3917 -70.9128 260° West 147 169 3,900  Level Boston Center
07:31PM 41.3883 -70.9653 265° West 145 167 4,400 480 Climbing Boston Center
07:32PM 41.3828 -71.0181 262° West 146 168 4,900 480 Climbing Boston Center
07:34PM 41.3065 -70.9541 254° West  Level FlightAware Approximate
07:34PM 41.3753 -71.0792 261° West 148 170 5,400  Level Boston Center
07:35PM 41.2878 -71.0077 236° Southwest  Level FlightAware Approximate
07:35PM 41.3694 -71.1317 262° West 149 171 5,800  Level Boston Center
07:36PM 41.3639 -71.1900 263° West 155 178 6,400 360 Climbing Boston Center
07:36PM 41.3583 -71.2425 262° West 160 184 6,500  Climbing Boston Center
07:37PM 41.3506 -71.3036 260° West 175 201 6,500  Level Boston Center
07:38PM 41.3386 -71.3675 256° West 172 198 6,500  Level Boston Center
07:39PM 41.3331 -71.4311 263° West 173 199 6,500  Level Boston Center
07:40PM 41.3294 -71.4947 266° West 174 200 6,500  Level Boston Center
07:42PM 41.3217 -71.5694 262° West 175 201 6,500  Level Boston Center
07:43PM 41.3117 -71.6386 259° West 174 200 6,500  Level Boston Center
07:44PM 41.3081 -71.6994 266° West 173 199 6,500  Level Boston Center
07:45PM 41.3022 -71.7631 263° West 175 201 6,500  Level Boston Center
07:46PM 41.2964 -71.8350 264° West 178 205 6,500  Level Boston Center
07:47PM 41.2861 -71.8958 257° West 176 203 6,500  Level Boston Center
07:48PM 41.2803 -71.9594 263° West 176 203 6,500  Level Boston Center
07:50PM 41.2667 -72.0833 262° West 175 201 6,500  Level New York TRACON
07:51PM 41.2500 -72.1500 252° West 176 203 6,500  Level New York TRACON
07:52PM 41.2500 -72.2167 270° West 175 201 6,500  Level New York TRACON
07:53PM 41.2500 -72.2833 270° West 175 201 6,500  Level New York TRACON
07:54PM 41.2333 -72.3500 252° West 175 201 6,500  Level New York TRACON
07:55PM 41.2333 -72.4167 270° West 174 200 6,500  Level New York TRACON
07:56PM 41.2167 -72.4667 246° West 175 201 6,500  Level New York TRACON
07:57PM 41.2167 -72.5333 270° West 175 201 6,500  Level New York TRACON
07:58PM 41.2167 -72.6000 270° West 176 203 6,500  Level New York TRACON
07:59PM 41.2000 -72.6667 252° West 177 204 6,500  Level New York TRACON
08:00PM 41.2000 -72.7167 270° West 175 201 6,500  Level New York TRACON
08:01PM 41.1833 -72.7833 252° West 175 201 6,500 -180 Level New York TRACON
08:02PM 41.1833 -72.8500 270° West 183 211 6,200 -360 Descending New York TRACON
08:03PM 41.1667 -72.9167 252° West 188 216 5,800 -480 Descending New York TRACON
08:04PM 41.1667 -72.9833 270° West 185 213 5,300 -480 Descending New York TRACON
08:05PM 41.1500 -73.0500 252° West 182 209 4,800 -540 Descending New York TRACON
08:06PM 41.1500 -73.1167 270° West 186 214 4,200 -540 Descending New York TRACON
08:07PM 41.1333 -73.1833 252° West 181 208 3,800 -480 Descending New York TRACON
08:08PM 41.1333 -73.2500 270° West 183 211 3,300 -600 Descending New York TRACON
08:09PM 41.1167 -73.3167 252° West 183 211 2,700 -540 Descending New York TRACON
08:10PM 41.1000 -73.3833 252° West 174 200 2,200 -420 Descending New York TRACON
08:11PM 41.1000 -73.4333 270° West 165 190 1,900 -180 Descending New York TRACON
08:12PM 41.0833 -73.5000 252° West 157 181 1,900  Level New York TRACON
08:13PM 41.0833 -73.5500 270° West 156 180 1,900  Level New York TRACON
08:14PM 41.0667 -73.6000 246° West 154 177 1,900  Level New York TRACON
08:15PM 41.0667 -73.6667 270° West 155 178 1,900  Level New York TRACON
08:16PM 41.1000 -73.6833 339° North 124 143 1,900 -120 Level New York TRACON
08:17PM 41.1000 -73.6833 270° West 163 188 1,700 -420 Descending New York TRACON
08:18PM 41.1000 -73.7167 270° West 92 106 1,100 -720 Descending New York TRACON
08:20PM 41.0667 -73.7000 201° Southwest  Level FlightAware Approximate
08:27PM 41.0669 -73.7076 201° Southwest  Level Estimated
08:28PM 41.0667 -73.7000 201° Southwest  Level FlightAware Approximate
08:29PM 41.0669 -73.7076 201° Southwest  Level Estimated